Current Weather

John Wayne/Orange County

Santa Ana, California (KSNA)

Report from: Sunday, February 25, 2024 1:53 PM PST
Current time: Sunday, February 25, 2024 2:55 PM PST

Nearby weather – Weather history – Daily summaries
Weather forecast

Temperature18.9°C (66.0°F)
Dew point8.9°C (48.0°F)
Winds 4 kts (2.1 m/s, 4.6 mph) South (170°)
Visibility10 mi. (16.1 km)
Clouds Ceiling: Broken clouds 23,000 ft. (7,010 m)
Altimeter30.03 in.Hg (1017 mB)
Relative humidity52 %
Density altitude498 ft. (152 m)
Sea-level pressure101.7 kPa (1017 mB, 30.03 in.Hg)
Remarks System requires maintenance
Automated weather observing station with precipitation discriminator
Flight conditions Visual Meteorological Conditions
Raw dataKSNA 252153Z 17004KT 10SM BKN230 19/09 A3003 RMK AO2 SLP169 T01890089 $
An error has occurred. This application may no longer respond until reloaded. Reload 🗙